Main page
METAR-TAF:

METAR-TAF

Airports :

Albacete Airport

Albacete, Spain

latitude: 38-57N, longitude: 001-51W, elevation: 702 m

Current weather observation

The report was made 18 minutes ago, at 23:00 UTC
Wind 6 kt from the East/Southeast, varying between East/Northeast and South
Temperature 23°C
Humidity 53%
Pressure 1021 hPa
Visibility 10 km or more
no clouds below 1500 m and no cumulonimbus

METAR: LEAB 052300Z 12006KT 070V170 CAVOK 23/13 Q1021 NOSIG

Time: 01:18 (23:18 UTC)

Forecast

The report was made 3 hours and 18 minutes ago, at 20:00 UTC
Forecast valid from 05 at 21 UTC to 06 at 06 UTC
Wind 8 kt from the South/Southeast
Visibility 10 km or more
no clouds below 1500 m and no cumulonimbus
Temporary
from 06 at 04 UTC to 06 at 06 UTC
Wind 4 kt from variable directions

TAF: LEAB 052000Z 0521/0606 16008KT CAVOK TEMPO 0604/0606 VRB04KT

Weather observations and forecasts of more than 4000 airports (METAR and TAF reports).

The available stations are represented by yellow and red dots on the map.

Hover mouse over dot to see the name of the station.

Then click to see weather observations and forecasts.

To change the map : click on the green buttons with a black cross to zoom in, on the green button with a dash to zoom out, or on the green arrows for adjacent maps.


METAR-TAF: